Time;durP1;ratioP1;P1;durP2;ratioP2;P2;SDS_P1;SDS_P2;PMS_P1;PMS_P2;Temp;Humidity;BMP_temperature;BMP_pressure;BME280_temperature;BME280_humidity;BME280_pressure;Samples;Min_cycle;Max_cycle;Signal;HPM_P1;HPM_P2
2023/12/19 00:00:39;;;;;;;165.75;94.07;;;;;;;-0.91;91.52;98885.72;10322375;28;20508;-50
2023/12/19 00:05:41;;;;;;;163.30;87.13;;;;;;;-1.46;91.48;98793.16;10321619;28;20072;-51
2023/12/19 00:10:42;;;;;;;123.15;67.50;;;;;;;-1.07;91.07;98860.09;10327782;28;20057;-50
2023/12/19 00:15:41;;;;;;;118.43;62.20;;;;;;;-2.20;91.25;98679.09;10332060;28;20113;-51
2023/12/19 00:20:40;;;;;;;100.30;54.63;;;;;;;-1.23;90.96;98889.69;10330948;28;20551;-49
2023/12/19 00:25:39;;;;;;;179.65;90.97;;;;;;;-1.33;90.35;98861.91;10332203;28;20033;-50
2023/12/19 00:30:39;;;;;;;106.63;56.45;;;;;;;-2.56;90.55;98660.72;10330845;28;20115;-50
2023/12/19 00:35:38;;;;;;;94.10;50.50;;;;;;;-1.39;91.05;98874.22;10331762;28;20057;-50
2023/12/19 00:40:37;;;;;;;97.45;52.72;;;;;;;-1.40;90.19;98862.25;10330746;28;20091;-50
2023/12/19 00:45:36;;;;;;;82.50;45.72;;;;;;;-1.93;90.39;98813.91;10330518;28;20037;-49
2023/12/19 00:50:35;;;;;;;97.72;52.25;;;;;;;-1.71;90.60;98874.69;10328088;28;20228;-50
2023/12/19 00:55:34;;;;;;;137.93;64.75;;;;;;;-3.15;91.07;98660.22;10331215;28;20420;-49
2023/12/19 01:00:33;;;;;;;115.88;57.20;;;;;;;-2.39;91.19;98800.72;10332295;28;20116;-49
2023/12/19 01:05:32;;;;;;;98.55;51.42;;;;;;;-1.99;91.35;98883.06;10329883;28;20029;-49
2023/12/19 01:10:31;;;;;;;101.75;54.67;;;;;;;-2.07;91.32;98857.13;10329823;28;20487;-50
2023/12/19 01:15:30;;;;;;;138.35;74.28;;;;;;;-2.07;91.18;98852.03;10329893;28;20014;-52
2023/12/19 01:20:29;;;;;;;126.45;69.57;;;;;;;-1.96;90.67;98869.66;10328896;28;20058;-50
2023/12/19 01:25:28;;;;;;;;;;;;;;;-1.82;90.05;98894.38;10330281;28;20121;-50
2023/12/19 01:30:26;;;;;;;124.50;61.90;;;;;;;-3.45;90.03;98634.53;10328923;28;19960;-50
2023/12/19 01:35:25;;;;;;;103.40;58.03;;;;;;;-2.00;90.78;98882.97;10329422;28;20032;-51
2023/12/19 01:40:28;;;;;;;99.10;54.38;;;;;;;-3.88;90.76;98555.53;10327072;28;20037;-49
2023/12/19 01:45:29;;;;;;;106.05;54.13;;;;;;;-1.99;91.11;98884.72;10326787;28;20073;-50
2023/12/19 01:50:29;;;;;;;170.70;91.10;;;;;;;-2.03;90.27;98877.66;10326026;28;20057;-50
2023/12/19 01:55:28;;;;;;;127.68;80.47;;;;;;;-2.49;91.09;98830.59;10326826;28;20116;-49
2023/12/19 02:00:27;;;;;;;;;;;;;;;-2.22;90.53;98881.53;10327739;28;20825;-50
2023/12/19 02:05:26;;;;;;;77.93;41.08;;;;;;;-2.67;90.93;98816.66;10327443;28;19917;-49
2023/12/19 02:10:27;;;;;;;65.45;37.65;;;;;;;-2.62;90.65;98829.66;10326242;28;20116;-49
2023/12/19 02:15:26;;;;;;;65.78;38.42;;;;;;;-2.75;91.02;98794.94;10327153;28;20069;-51
2023/12/19 02:20:25;;;;;;;85.13;48.10;;;;;;;-2.94;90.71;98773.38;10327092;28;20077;-51
2023/12/19 02:25:24;;;;;;;86.97;51.05;;;;;;;-2.57;90.83;98828.31;10327612;28;20029;-50
2023/12/19 02:30:24;;;;;;;96.90;58.20;;;;;;;-2.22;90.61;98855.22;10326338;28;20052;-49
2023/12/19 02:35:23;;;;;;;105.53;60.95;;;;;;;-2.04;91.54;98864.06;10324224;28;20523;-49
2023/12/19 02:40:23;;;;;;;91.25;52.30;;;;;;;-2.04;90.65;98866.63;10324880;28;20079;-50
2023/12/19 02:45:22;;;;;;;90.22;51.15;;;;;;;-2.29;90.93;98814.16;10324859;28;20132;-50
2023/12/19 02:50:21;;;;;;;98.03;54.40;;;;;;;-3.23;90.50;98641.03;10326081;28;20041;-50
2023/12/19 02:55:20;;;;;;;99.35;56.47;;;;;;;-2.26;91.42;98828.72;10326253;28;20063;-49
2023/12/19 03:00:19;;;;;;;87.07;49.90;;;;;;;-2.26;91.01;98836.34;10325244;28;20030;-52
2023/12/19 03:05:18;;;;;;;82.90;44.10;;;;;;;-2.29;91.38;98864.09;10326890;28;20536;-50
2023/12/19 03:10:17;;;;;;;81.88;45.75;;;;;;;-2.60;91.04;98826.44;10326230;28;20069;-49
2023/12/19 03:15:16;;;;;;;85.68;46.83;;;;;;;-2.64;90.99;98814.34;10325955;28;20021;-50
2023/12/19 03:20:15;;;;;;;106.50;52.78;;;;;;;-2.38;90.82;98848.22;10325038;28;20056;-49
2023/12/19 03:25:14;;;;;;;110.88;55.47;;;;;;;-2.46;91.32;98840.09;10325241;28;20120;-50
2023/12/19 03:30:13;;;;;;;96.65;51.90;;;;;;;-2.55;90.62;98824.22;10324719;28;20048;-50
2023/12/19 03:35:12;;;;;;;112.57;57.83;;;;;;;-2.81;91.54;98800.47;10325012;28;20028;-50
2023/12/19 03:40:11;;;;;;;128.43;65.95;;;;;;;-3.00;91.17;98737.41;10323429;28;20069;-52
2023/12/19 03:45:10;;;;;;;118.03;60.58;;;;;;;-2.38;91.59;98838.06;10322824;28;20049;-50
2023/12/19 03:50:09;;;;;;;110.32;59.25;;;;;;;-2.50;90.94;98795.81;10324356;28;20025;-51
2023/12/19 03:55:08;;;;;;;95.70;53.30;;;;;;;-2.40;90.95;98804.94;10324306;28;20076;-50
2023/12/19 04:00:08;;;;;;;109.13;57.42;;;;;;;-2.27;90.87;98832.03;10324541;28;20061;-50
2023/12/19 04:05:07;;;;;;;141.07;68.45;;;;;;;-2.58;91.38;98804.56;10324244;28;20152;-49
2023/12/19 04:10:07;;;;;;;140.73;71.65;;;;;;;-2.35;90.86;98823.91;10322166;28;20465;-50
2023/12/19 04:15:06;;;;;;;;;;;;;;;-2.30;91.29;98831.84;10324430;28;20072;-50
2023/12/19 04:20:05;;;;;;;189.50;80.25;;;;;;;-2.36;92.00;98806.91;10323229;28;19913;-49
2023/12/19 04:25:05;;;;;;;187.90;78.43;;;;;;;-2.21;91.63;98816.31;10322096;28;20139;-50
2023/12/19 04:30:05;;;;;;;184.55;80.95;;;;;;;-2.02;91.63;98831.13;10322323;28;20179;-49
2023/12/19 04:35:04;;;;;;;182.63;79.43;;;;;;;-1.94;91.14;98830.81;10321652;28;20066;-49
2023/12/19 04:40:04;;;;;;;142.20;69.93;;;;;;;-1.97;91.90;98834.84;10323888;28;20069;-50
2023/12/19 04:45:03;;;;;;;124.47;61.05;;;;;;;-2.19;91.65;98792.75;10322698;28;20112;-49
2023/12/19 04:50:03;;;;;;;156.23;73.20;;;;;;;-2.07;91.17;98816.44;10323597;28;20069;-50
2023/12/19 04:55:02;;;;;;;198.20;79.72;;;;;;;-2.20;91.75;98829.13;10324638;28;20056;-52
2023/12/19 05:00:01;;;;;;;;;;;;;;;-2.12;91.96;98842.34;10331431;28;20112;-50
2023/12/19 05:05:00;;;;;;;221.45;86.70;;;;;;;-2.11;92.44;98832.25;10345188;28;20003;-49
2023/12/19 05:09:59;;;;;;;282.88;104.43;;;;;;;-2.08;92.11;98837.56;10330469;28;20128;-50
2023/12/19 05:14:58;;;;;;;232.38;85.88;;;;;;;-2.03;92.54;98853.13;10329959;28;20072;-50
2023/12/19 05:19:57;;;;;;;217.55;73.90;;;;;;;-2.11;92.70;98855.16;10329609;28;20112;-51
2023/12/19 05:24:56;;;;;;;120.75;54.20;;;;;;;-2.03;92.10;98852.22;10329418;28;20061;-52
2023/12/19 05:29:55;;;;;;;124.13;55.97;;;;;;;-1.86;92.00;98855.13;10327079;28;20120;-50
2023/12/19 05:34:54;;;;;;;224.30;80.07;;;;;;;-2.00;91.59;98830.44;10326243;28;20033;-51
2023/12/19 05:39:55;;;;;;;248.23;92.85;;;;;;;-2.55;91.53;98769.19;10328141;28;20034;-51
2023/12/19 05:44:54;;;;;;;195.25;81.88;;;;;;;-2.44;92.44;98814.78;10325917;28;20075;-51
2023/12/19 05:49:53;;;;;;;166.60;72.75;;;;;;;-2.02;91.81;98869.28;10326569;28;20037;-50
2023/12/19 05:54:52;;;;;;;194.98;76.30;;;;;;;-2.03;92.01;98834.44;10325200;28;20516;-50
2023/12/19 05:59:51;;;;;;;163.63;70.82;;;;;;;-3.38;92.25;98596.09;10328698;28;20036;-50
2023/12/19 06:04:50;;;;;;;171.00;78.78;;;;;;;-2.07;91.88;98829.16;10327384;28;20116;-50
2023/12/19 06:09:49;;;;;;;273.85;99.78;;;;;;;-2.24;91.54;98791.56;10328236;28;20471;-50
2023/12/19 06:14:48;;;;;;;275.17;96.80;;;;;;;-2.17;91.63;98854.78;10325465;28;20437;-51
2023/12/19 06:19:47;;;;;;;239.25;89.47;;;;;;;-2.61;91.88;98778.09;10326072;28;20044;-50
2023/12/19 06:24:46;;;;;;;408.25;112.88;;;;;;;-2.48;92.01;98806.06;10326303;28;20039;-49
2023/12/19 06:29:46;;;;;;;207.60;85.13;;;;;;;-2.14;92.55;98860.03;10323640;28;20682;-49
2023/12/19 06:34:45;;;;;;;262.05;93.60;;;;;;;-1.97;91.81;98861.16;10325043;28;20481;-49
2023/12/19 06:39:44;;;;;;;189.85;85.13;;;;;;;-2.40;92.57;98804.94;10319668;28;20901;-51
2023/12/19 06:44:43;;;;;;;265.10;92.03;;;;;;;-2.22;92.32;98845.94;10319550;28;20132;-48
2023/12/19 06:49:45;;;;;;;395.48;109.95;;;;;;;-2.29;91.39;98853.94;10319898;28;20663;-49
2023/12/19 06:54:43;;;;;;;151.07;69.03;;;;;;;-2.30;92.13;98844.56;10321565;28;20148;-49
2023/12/19 06:59:42;;;;;;;217.48;85.25;;;;;;;-1.94;92.09;98857.94;10322652;28;20021;-49
2023/12/19 07:04:41;;;;;;;246.05;88.00;;;;;;;-1.86;92.45;98851.69;10323190;28;20048;-51
2023/12/19 07:09:40;;;;;;;357.20;107.13;;;;;;;-1.74;92.10;98857.56;10325037;28;20428;-49
2023/12/19 07:14:39;;;;;;;310.17;105.30;;;;;;;-1.51;92.05;98870.91;10320317;28;20029;-49
2023/12/19 07:19:40;;;;;;;239.85;97.53;;;;;;;-1.47;91.78;98852.47;10324377;28;20033;-49
2023/12/19 07:24:39;;;;;;;314.55;121.28;;;;;;;-1.38;91.50;98854.75;10322465;28;20133;-50
2023/12/19 07:29:39;;;;;;;244.43;111.28;;;;;;;-1.13;91.36;98844.44;10323827;28;20033;-49
2023/12/19 07:34:39;;;;;;;313.13;127.35;;;;;;;-0.98;91.65;98830.09;10323027;28;20079;-50
2023/12/19 07:39:38;;;;;;;272.75;121.43;;;;;;;-0.84;91.49;98833.47;10323246;28;20087;-50
2023/12/19 07:44:37;;;;;;;253.43;113.55;;;;;;;-0.64;91.66;98811.75;10322717;28;20554;-48
2023/12/19 07:49:36;;;;;;;298.95;119.20;;;;;;;-0.29;91.09;98810.41;10323332;28;20037;-49
2023/12/19 07:54:36;;;;;;;257.83;118.55;;;;;;;-0.31;89.87;98805.22;10321796;28;20132;-49
2023/12/19 07:59:35;;;;;;;264.15;116.70;;;;;;;-0.56;89.80;98759.53;10321819;28;20116;-49
2023/12/19 08:04:34;;;;;;;282.48;112.25;;;;;;;-0.25;89.82;98800.50;10321728;28;20037;-48
2023/12/19 08:09:34;;;;;;;331.35;106.57;;;;;;;-1.50;88.14;98578.25;10320705;28;20476;-49
2023/12/19 08:14:32;;;;;;;;;;;;;;;-0.13;89.53;98823.28;10321492;28;20120;-48
2023/12/19 08:19:31;;;;;;;249.63;109.38;;;;;;;0.08;89.54;98807.41;10323156;28;20008;-48
2023/12/19 08:24:31;;;;;;;400.00;127.15;;;;;;;0.13;89.40;98783.06;10321217;28;20137;-49
2023/12/19 08:29:29;;;;;;;268.90;118.40;;;;;;;0.39;89.96;98804.94;10323615;28;20080;-49
2023/12/19 08:34:28;;;;;;;325.23;112.50;;;;;;;-0.05;87.31;98754.81;10328244;28;20033;-50
2023/12/19 08:39:27;;;;;;;285.83;94.80;;;;;;;-0.08;87.93;98763.19;10329692;28;20029;-49
2023/12/19 08:44:26;;;;;;;278.20;97.22;;;;;;;-0.04;88.99;98767.69;10329405;28;20043;-49
2023/12/19 08:49:25;;;;;;;;;;;;;;;0.16;89.11;98785.78;10329989;28;20122;-49
2023/12/19 08:54:24;;;;;;;207.93;84.07;;;;;;;0.14;89.37;98726.09;10329520;28;20011;-49
2023/12/19 08:59:23;;;;;;;220.73;88.68;;;;;;;0.30;89.30;98700.63;10328546;28;20037;-49
2023/12/19 09:04:22;;;;;;;212.55;92.72;;;;;;;0.89;88.12;98756.59;10328913;28;20127;-49
2023/12/19 09:09:21;;;;;;;232.45;99.93;;;;;;;0.72;87.60;98693.50;10327184;28;20040;-50
2023/12/19 09:14:20;;;;;;;233.00;110.40;;;;;;;1.09;87.21;98761.91;10327097;28;20042;-49
2023/12/19 09:19:19;;;;;;;240.38;121.30;;;;;;;0.43;87.27;98635.81;10322611;28;20037;-48
2023/12/19 09:24:18;;;;;;;261.83;125.20;;;;;;;0.81;87.61;98694.00;10326572;28;20049;-50
2023/12/19 09:29:19;;;;;;;234.68;121.00;;;;;;;0.77;88.13;98681.84;10324273;28;20049;-48
2023/12/19 09:34:21;;;;;;;210.10;104.35;;;;;;;0.64;89.18;98687.13;10329724;28;20484;-49
2023/12/19 09:39:21;;;;;;;207.00;102.82;;;;;;;0.92;89.58;98701.34;10328308;28;20065;-49
2023/12/19 09:44:20;;;;;;;221.57;113.38;;;;;;;1.10;89.66;98690.38;10327926;28;20108;-47
2023/12/19 09:49:24;;;;;;;228.18;121.47;;;;;;;1.54;89.39;98706.22;10328227;28;20690;-49
2023/12/19 09:54:24;;;;;;;307.27;171.65;;;;;;;1.69;89.36;98665.16;10327410;28;20468;-48
2023/12/19 09:59:23;;;;;;;284.15;158.38;;;;;;;1.75;88.80;98619.41;10325008;28;20053;-49
2023/12/19 10:04:22;;;;;;;259.88;141.27;;;;;;;1.98;89.21;98614.50;10327364;28;20126;-49
2023/12/19 10:09:21;;;;;;;225.23;125.18;;;;;;;2.32;89.12;98619.47;10327213;28;20408;-49
2023/12/19 10:14:21;;;;;;;187.50;104.82;;;;;;;2.75;89.63;98639.34;10327330;28;20120;-48
2023/12/19 10:19:28;;;;;;;174.73;99.78;;;;;;;2.78;89.76;98593.31;10327898;28;20507;-49
2023/12/19 10:24:27;;;;;;;141.68;80.45;;;;;;;3.26;89.75;98627.00;10326616;28;20092;-54
2023/12/19 10:29:26;;;;;;;150.48;83.85;;;;;;;3.39;89.90;98588.19;10324375;28;20042;-49
2023/12/19 10:34:25;;;;;;;;;;;;;;;3.83;90.21;98614.75;10326651;28;20547;-48
2023/12/19 10:39:24;;;;;;;130.10;73.78;;;;;;;3.92;88.80;98569.75;10325776;28;20466;-49
2023/12/19 10:44:23;;;;;;;128.80;75.82;;;;;;;3.95;89.06;98537.31;10326043;28;20148;-50
2023/12/19 10:49:22;;;;;;;128.57;81.35;;;;;;;4.38;88.26;98554.31;10325324;28;20564;-51
2023/12/19 10:54:25;;;;;;;149.32;91.40;;;;;;;4.53;89.23;98571.13;10319089;28;20479;-49
2023/12/19 10:59:56;;;;;;;131.02;77.75;;;;;;;4.48;89.08;98528.16;10316666;28;20486;-49
2023/12/19 11:05:21;;;;;;;109.05;65.95;;;;;;;4.59;87.92;98501.94;10318533;28;20128;-49
2023/12/19 11:10:22;;;;;;;109.18;70.90;;;;;;;5.19;87.42;98546.00;10317067;28;20112;-49
2023/12/19 11:15:23;;;;;;;107.80;69.40;;;;;;;5.15;86.61;98492.69;10322501;28;20108;-50
2023/12/19 11:20:27;;;;;;;111.35;71.07;;;;;;;5.62;86.37;98501.03;10315202;28;20506;-49
2023/12/19 11:25:34;;;;;;;108.22;70.70;;;;;;;5.71;86.27;98464.38;10313369;28;20132;-49
2023/12/19 11:30:39;;;;;;;106.32;68.93;;;;;;;5.82;83.92;98451.84;10319724;28;20507;-48
2023/12/19 11:35:38;;;;;;;98.35;64.15;;;;;;;6.29;83.24;98475.50;10322074;28;20072;-49
2023/12/19 11:40:46;;;;;;;;;;;;;;;6.57;83.46;98488.28;10317893;28;20121;-49
2023/12/19 11:45:45;;;;;;;99.90;65.68;;;;;;;6.76;83.30;98457.81;10319364;28;20020;-50
2023/12/19 11:50:45;;;;;;;99.07;65.00;;;;;;;7.06;82.40;98467.16;10313504;28;20038;-49
2023/12/19 11:55:43;;;;;;;100.10;67.88;;;;;;;7.22;82.24;98444.34;10320050;28;20564;-51
2023/12/19 12:00:43;;;;;;;105.03;72.88;;;;;;;7.45;78.58;98446.59;10318773;28;20527;-49
2023/12/19 12:05:42;;;;;;;112.50;77.03;;;;;;;7.48;80.44;98430.31;10322014;28;20072;-50
2023/12/19 12:10:56;;;;;;;108.70;76.43;;;;;;;7.69;78.09;98427.31;10320462;28;20040;-51
2023/12/19 12:15:56;;;;;;;110.82;76.65;;;;;;;7.97;78.30;98427.06;10317994;28;20116;-48
2023/12/19 12:21:08;;;;;;;96.32;69.60;;;;;;;8.30;77.31;98442.34;10317560;28;20516;-48
2023/12/19 12:26:08;;;;;;;81.97;54.83;;;;;;;8.55;74.65;98441.91;10320096;28;20112;-49
2023/12/19 12:31:08;;;;;;;86.93;58.65;;;;;;;8.66;72.45;98435.22;10317607;28;20140;-49
2023/12/19 12:36:10;;;;;;;73.30;51.58;;;;;;;8.76;72.20;98402.59;10316718;28;20137;-49
2023/12/19 12:41:09;;;;;;;71.80;48.92;;;;;;;8.97;71.96;98409.84;10316219;28;20121;-51
2023/12/19 12:46:11;;;;;;;66.55;49.28;;;;;;;9.13;69.64;98425.63;10319601;28;20087;-49
2023/12/19 12:51:11;;;;;;;69.45;50.58;;;;;;;9.20;68.33;98385.19;10319805;28;20552;-49
2023/12/19 12:56:18;;;;;;;73.70;53.88;;;;;;;9.07;68.69;98336.69;10321332;28;20116;-49
2023/12/19 13:01:17;;;;;;;55.15;39.28;;;;;;;9.40;66.37;98385.50;10318519;28;20116;-49
2023/12/19 13:06:16;;;;;;;54.88;40.35;;;;;;;9.61;66.45;98390.09;10320016;28;20116;-49
2023/12/19 13:11:15;;;;;;;81.05;57.15;;;;;;;9.28;64.19;98351.66;10321722;28;20473;-49
2023/12/19 13:16:14;;;;;;;87.95;60.53;;;;;;;9.59;67.38;98381.44;10324952;28;20112;-49
2023/12/19 13:21:13;;;;;;;94.20;62.25;;;;;;;9.44;68.93;98313.88;10319222;28;20568;-49
2023/12/19 13:26:13;;;;;;;;;;;;;;;7.99;66.97;98047.16;10326415;28;20212;-49
2023/12/19 13:31:12;;;;;;;90.65;65.55;;;;;;;10.02;67.78;98376.75;10312910;28;20668;-49
2023/12/19 13:36:15;;;;;;;103.22;75.80;;;;;;;9.99;66.92;98384.50;10321229;28;20120;-49
2023/12/19 13:41:16;;;;;;;102.10;74.82;;;;;;;9.71;67.78;98353.06;10323262;28;21851;-50
2023/12/19 13:46:15;;;;;;;106.57;76.38;;;;;;;9.73;67.70;98353.97;10317968;28;20123;-49
2023/12/19 13:51:15;;;;;;;101.28;74.75;;;;;;;9.40;69.10;98293.97;10318898;28;20025;-49
2023/12/19 13:56:14;;;;;;;74.75;54.78;;;;;;;9.32;65.38;98276.63;10321021;28;20121;-49
2023/12/19 14:01:13;;;;;;;62.38;43.33;;;;;;;9.40;63.65;98310.38;10322241;28;20049;-50
2023/12/19 14:06:12;;;;;;;39.40;28.13;;;;;;;9.42;61.75;98338.88;10326032;28;20120;-49
2023/12/19 14:11:11;;;;;;;40.75;28.02;;;;;;;9.25;61.41;98352.44;10321978;28;20017;-52
2023/12/19 14:16:10;;;;;;;34.40;23.05;;;;;;;8.87;62.12;98332.06;10321997;28;20056;-50
2023/12/19 14:21:10;;;;;;;;;;;;;;;8.77;61.36;98363.81;10326264;28;20140;-49
2023/12/19 14:26:09;;;;;;;39.47;29.87;;;;;;;8.40;61.43;98339.94;10321229;28;19995;-50
2023/12/19 14:31:12;;;;;;;56.65;35.50;;;;;;;8.22;62.38;98370.63;10325787;28;20029;-49
2023/12/19 14:36:11;;;;;;;66.53;46.85;;;;;;;7.94;64.71;98366.66;10320013;28;20124;-50
2023/12/19 14:41:10;;;;;;;;;;;;;;;7.55;65.62;98368.50;10322921;28;20112;-50
2023/12/19 14:46:09;;;;;;;72.70;49.15;;;;;;;7.15;66.66;98364.16;10316903;28;21645;-50
2023/12/19 14:51:08;;;;;;;72.60;47.92;;;;;;;6.86;68.08;98360.88;10317152;28;20112;-49
2023/12/19 14:56:10;;;;;;;82.75;53.83;;;;;;;6.43;68.63;98336.66;10325627;28;20112;-49
2023/12/19 15:01:13;;;;;;;82.72;56.85;;;;;;;6.40;68.68;98351.22;10324803;28;20136;-50
2023/12/19 15:06:12;;;;;;;90.60;55.70;;;;;;;6.06;70.40;98328.00;10316773;28;20128;-50
2023/12/19 15:11:11;;;;;;;95.07;58.15;;;;;;;5.40;69.61;98249.84;10315692;28;20119;-51
2023/12/19 15:16:13;;;;;;;77.28;49.10;;;;;;;5.43;70.99;98303.13;10320267;28;20041;-50
2023/12/19 15:21:13;;;;;;;94.22;57.20;;;;;;;5.47;72.39;98341.84;10321224;28;20484;-49
2023/12/19 15:26:12;;;;;;;86.22;55.60;;;;;;;5.21;72.66;98333.38;10317308;28;20104;-49
2023/12/19 15:31:11;;;;;;;78.20;48.60;;;;;;;5.05;72.38;98316.59;10317211;28;20124;-49
2023/12/19 15:36:17;;;;;;;64.32;38.97;;;;;;;5.04;73.62;98340.59;10319045;28;20029;-49
2023/12/19 15:41:20;;;;;;;69.10;43.67;;;;;;;4.55;73.97;98277.34;10321005;28;20476;-50
2023/12/19 15:46:19;;;;;;;79.97;48.85;;;;;;;4.86;74.31;98343.44;10315700;28;20160;-49
2023/12/19 15:51:20;;;;;;;78.00;49.40;;;;;;;4.46;75.16;98292.50;10317563;28;20800;-51
2023/12/19 15:56:25;;;;;;;117.97;75.20;;;;;;;4.55;75.72;98327.88;10325347;28;20069;-49
2023/12/19 16:01:25;;;;;;;118.60;75.97;;;;;;;4.40;76.08;98320.53;10324213;28;20460;-49
2023/12/19 16:06:25;;;;;;;89.15;56.50;;;;;;;4.27;75.62;98330.44;10323136;28;20567;-49
2023/12/19 16:11:24;;;;;;;79.78;50.17;;;;;;;4.02;76.46;98310.75;10324314;28;20061;-49
2023/12/19 16:16:23;;;;;;;81.78;52.75;;;;;;;3.99;77.28;98317.50;10324574;28;20059;-50
2023/12/19 16:21:22;;;;;;;81.93;49.67;;;;;;;3.75;77.42;98285.03;10323608;28;20038;-51
2023/12/19 16:26:21;;;;;;;86.00;53.15;;;;;;;3.79;76.98;98307.41;10321959;28;20112;-50
2023/12/19 16:31:20;;;;;;;85.40;54.53;;;;;;;3.65;77.84;98304.34;10324879;28;20025;-50
2023/12/19 16:36:19;;;;;;;96.10;56.70;;;;;;;3.32;77.85;98268.09;10318534;28;20770;-49
2023/12/19 16:41:21;;;;;;;89.43;56.30;;;;;;;3.35;78.52;98282.72;10313936;28;20630;-50
2023/12/19 16:46:20;;;;;;;95.55;60.58;;;;;;;3.18;78.75;98261.63;10318338;28;20119;-49
2023/12/19 16:51:19;;;;;;;99.07;59.10;;;;;;;2.94;79.34;98238.53;10318214;28;21454;-49
2023/12/19 16:56:19;;;;;;;106.75;67.97;;;;;;;2.92;79.20;98252.97;10323984;28;20944;-48
2023/12/19 17:01:18;;;;;;;159.88;100.80;;;;;;;2.98;80.42;98307.91;10325092;28;20109;-48
2023/12/19 17:06:18;;;;;;;116.93;78.60;;;;;;;2.50;80.35;98230.91;10334467;28;20065;-49
2023/12/19 17:11:18;;;;;;;143.63;88.00;;;;;;;2.58;80.99;98252.59;10321258;28;20587;-49
2023/12/19 17:16:16;;;;;;;165.00;99.40;;;;;;;1.60;81.04;98090.06;10322413;28;20453;-48
2023/12/19 17:21:15;;;;;;;219.90;131.45;;;;;;;2.37;81.25;98228.69;10321973;28;20740;-50
2023/12/19 17:26:15;;;;;;;226.95;141.27;;;;;;;2.47;81.50;98256.41;10330056;28;20463;-50
2023/12/19 17:31:13;;;;;;;218.57;130.20;;;;;;;2.67;81.91;98289.59;10330806;28;20061;-49
2023/12/19 17:36:12;;;;;;;228.20;133.25;;;;;;;2.53;81.50;98300.19;10330672;28;20140;-50
2023/12/19 17:41:11;;;;;;;220.13;126.40;;;;;;;2.15;81.89;98256.00;10322024;28;20141;-48
2023/12/19 17:46:14;;;;;;;344.17;177.80;;;;;;;1.66;82.82;98178.94;10326389;28;20465;-49
2023/12/19 17:51:13;;;;;;;257.88;143.30;;;;;;;2.34;82.25;98297.72;10326329;28;20120;-50
2023/12/19 17:56:12;;;;;;;236.82;135.98;;;;;;;2.25;83.15;98299.91;10326767;28;20037;-49
2023/12/19 18:01:12;;;;;;;234.57;128.18;;;;;;;2.22;82.95;98297.22;10321458;28;20080;-49
2023/12/19 18:06:20;;;;;;;;;;;;;;;2.06;83.46;98293.16;10330477;28;20065;-49
2023/12/19 18:11:18;;;;;;;243.88;128.73;;;;;;;2.01;83.72;98292.97;10327317;28;20004;-49
2023/12/19 18:16:17;;;;;;;244.15;135.10;;;;;;;1.72;83.72;98251.69;10333268;28;20032;-49
2023/12/19 18:21:16;;;;;;;235.48;135.18;;;;;;;1.83;83.43;98272.59;10327915;28;20149;-50
2023/12/19 18:26:15;;;;;;;227.50;132.52;;;;;;;1.81;83.68;98273.34;10328571;28;20207;-49
2023/12/19 18:31:14;;;;;;;227.75;132.80;;;;;;;1.63;83.88;98269.22;10329370;28;20040;-51
2023/12/19 18:36:20;;;;;;;212.70;129.13;;;;;;;1.40;84.28;98240.09;10327223;28;20021;-48
2023/12/19 18:41:19;;;;;;;230.32;137.43;;;;;;;1.26;84.35;98220.75;10323106;28;20149;-49
2023/12/19 18:46:19;;;;;;;193.40;118.78;;;;;;;1.50;84.01;98261.81;10315265;28;20029;-50
2023/12/19 18:51:18;;;;;;;181.80;111.00;;;;;;;1.45;84.30;98251.41;10321458;28;20124;-49
2023/12/19 18:56:17;;;;;;;167.70;104.10;;;;;;;1.15;84.49;98212.59;10326627;28;20084;-49
2023/12/19 19:01:16;;;;;;;168.98;107.95;;;;;;;1.00;84.48;98191.50;10326592;28;20069;-49
2023/12/19 19:06:15;;;;;;;153.18;90.03;;;;;;;1.49;84.59;98285.66;10325219;28;20021;-51
2023/12/19 19:11:15;;;;;;;142.60;90.18;;;;;;;1.42;84.82;98293.88;10325811;28;20073;-49
2023/12/19 19:16:14;;;;;;;154.05;93.45;;;;;;;1.25;85.05;98267.59;10323840;28;20063;-50
2023/12/19 19:21:15;;;;;;;171.00;104.25;;;;;;;0.97;85.36;98227.16;10325198;28;20068;-48
2023/12/19 19:26:14;;;;;;;159.65;97.63;;;;;;;1.19;85.23;98283.50;10325180;28;20056;-49
2023/12/19 19:31:16;;;;;;;148.70;85.70;;;;;;;0.84;85.55;98206.16;10325689;28;20064;-48
2023/12/19 19:36:15;;;;;;;138.43;82.32;;;;;;;0.97;85.65;98224.59;10325999;28;20116;-49
2023/12/19 19:41:17;;;;;;;132.20;83.97;;;;;;;-0.86;85.04;97892.34;10325809;28;20025;-48
2023/12/19 19:46:15;;;;;;;137.68;81.07;;;;;;;1.01;85.97;98223.91;10325961;28;20060;-49
2023/12/19 19:51:14;;;;;;;165.40;101.57;;;;;;;1.02;86.02;98218.88;10324393;28;20049;-50
2023/12/19 19:56:13;;;;;;;186.55;118.70;;;;;;;0.46;87.32;98143.16;10325457;28;20085;-48
2023/12/19 20:01:15;;;;;;;246.43;147.38;;;;;;;0.90;86.76;98211.53;10323416;28;20448;-51
2023/12/19 20:06:14;;;;;;;207.38;127.97;;;;;;;0.94;86.79;98227.00;10325458;28;20071;-49
2023/12/19 20:11:13;;;;;;;143.50;78.65;;;;;;;0.74;86.58;98190.38;10324834;28;20547;-51
2023/12/19 20:16:13;;;;;;;117.05;69.68;;;;;;;0.68;86.79;98189.25;10325232;28;20037;-50
2023/12/19 20:21:12;;;;;;;137.52;76.00;;;;;;;0.58;86.69;98184.56;10325274;28;20076;-49
2023/12/19 20:26:11;;;;;;;161.75;85.15;;;;;;;0.64;86.82;98189.09;10329500;28;20468;-50
2023/12/19 20:31:10;;;;;;;129.48;70.28;;;;;;;0.46;86.91;98154.25;10331679;28;20455;-49
2023/12/19 20:36:09;;;;;;;132.63;79.55;;;;;;;0.21;86.55;98113.09;10332662;28;20064;-49
2023/12/19 20:41:08;;;;;;;143.05;85.15;;;;;;;0.56;86.61;98175.09;10332866;28;20057;-50
2023/12/19 20:46:09;;;;;;;142.30;89.97;;;;;;;0.39;86.76;98142.00;10332618;28;20034;-49
2023/12/19 20:51:08;;;;;;;186.15;112.78;;;;;;;0.46;86.84;98161.91;10333194;28;20183;-51
2023/12/19 20:56:07;;;;;;;213.70;125.82;;;;;;;0.15;86.57;98107.75;10335792;28;20290;-50
2023/12/19 21:01:06;;;;;;;241.88;134.38;;;;;;;0.24;86.88;98118.34;10331334;28;20116;-49
2023/12/19 21:06:07;;;;;;;236.68;134.15;;;;;;;0.23;86.76;98125.13;10333140;28;20064;-49
2023/12/19 21:11:06;;;;;;;230.38;133.57;;;;;;;0.25;87.09;98137.97;10332122;28;20061;-49
2023/12/19 21:16:05;;;;;;;249.55;148.20;;;;;;;0.26;87.16;98135.50;10331904;28;20539;-50
2023/12/19 21:21:07;;;;;;;241.95;141.35;;;;;;;0.28;87.61;98155.97;10331996;28;20077;-49
2023/12/19 21:26:06;;;;;;;231.73;134.73;;;;;;;-0.09;87.25;98069.19;10332828;28;20132;-50
2023/12/19 21:31:08;;;;;;;255.65;148.10;;;;;;;0.05;87.23;98108.97;10331141;28;20065;-50
2023/12/19 21:36:07;;;;;;;253.88;147.00;;;;;;;0.09;87.33;98115.09;10338324;28;20068;-49
2023/12/19 21:41:11;;;;;;;;;;;;;;;0.14;87.46;98131.50;10331782;28;20520;-51
2023/12/19 21:46:10;;;;;;;258.73;145.02;;;;;;;0.12;87.39;98121.19;10329619;28;19956;-49
2023/12/19 21:51:09;;;;;;;234.65;136.68;;;;;;;0.07;87.04;98106.50;10329335;28;20087;-49
2023/12/19 21:56:08;;;;;;;246.50;141.00;;;;;;;-0.30;87.62;98049.56;10329908;28;20483;-49
2023/12/19 22:01:07;;;;;;;249.05;147.63;;;;;;;-0.00;87.62;98090.03;10329559;28;20476;-49
2023/12/19 22:06:06;;;;;;;279.48;159.57;;;;;;;-0.05;87.39;98091.50;10329109;28;20470;-51
2023/12/19 22:11:05;;;;;;;283.27;155.70;;;;;;;-0.18;87.84;98072.22;10328759;28;20033;-51
2023/12/19 22:16:05;;;;;;;254.68;147.88;;;;;;;-0.15;88.16;98080.00;10328602;28;20032;-50
2023/12/19 22:21:04;;;;;;;287.75;169.40;;;;;;;-0.52;87.86;98001.81;10327937;28;20076;-50
2023/12/19 22:26:03;;;;;;;346.23;203.88;;;;;;;-0.28;88.56;98053.06;10328504;28;20059;-51
2023/12/19 22:31:02;;;;;;;336.63;193.77;;;;;;;-0.22;88.28;98060.13;10327604;28;20030;-51
2023/12/19 22:36:03;;;;;;;344.08;201.00;;;;;;;-0.21;88.63;98066.97;10328063;28;20495;-50
2023/12/19 22:41:03;;;;;;;387.58;218.68;;;;;;;-0.25;88.49;98037.91;10327697;28;20053;-50